sensor_id;sensor_type;location;lat;lon;timestamp;pressure;altitude;pressure_sealevel;temperature;humidity
818;BME280;391;51.052;6.954;2023-02-18T00:01:35;101656.00;;;11.69;92.64
818;BME280;391;51.052;6.954;2023-02-18T00:03:39;101626.81;;;11.57;92.53
818;BME280;391;51.052;6.954;2023-02-18T00:05:44;101650.56;;;11.63;92.89
818;BME280;391;51.052;6.954;2023-02-18T00:07:48;101665.53;;;11.67;93.33
818;BME280;391;51.052;6.954;2023-02-18T00:09:51;101649.34;;;11.76;93.29
818;BME280;391;51.052;6.954;2023-02-18T00:11:54;101646.94;;;11.82;92.89
818;BME280;391;51.052;6.954;2023-02-18T00:14:00;101646.59;;;11.95;92.58
818;BME280;391;51.052;6.954;2023-02-18T00:16:06;101655.84;;;11.64;93.31
818;BME280;391;51.052;6.954;2023-02-18T00:18:10;101660.56;;;11.52;94.63
818;BME280;391;51.052;6.954;2023-02-18T00:20:14;101650.19;;;11.54;94.97
818;BME280;391;51.052;6.954;2023-02-18T00:22:19;101644.88;;;11.73;94.63
818;BME280;391;51.052;6.954;2023-02-18T00:24:22;101620.22;;;11.66;93.88
818;BME280;391;51.052;6.954;2023-02-18T00:26:25;101647.53;;;11.75;93.67
818;BME280;391;51.052;6.954;2023-02-18T00:28:29;101646.03;;;11.59;94.69
818;BME280;391;51.052;6.954;2023-02-18T00:30:34;101631.56;;;11.67;94.58
818;BME280;391;51.052;6.954;2023-02-18T00:32:42;101640.19;;;11.64;94.86
818;BME280;391;51.052;6.954;2023-02-18T00:34:45;101642.78;;;11.64;94.68
818;BME280;391;51.052;6.954;2023-02-18T00:36:48;101625.38;;;11.65;94.92
818;BME280;391;51.052;6.954;2023-02-18T00:38:55;101614.69;;;11.59;94.63
818;BME280;391;51.052;6.954;2023-02-18T00:40:59;101625.91;;;11.56;94.94
818;BME280;391;51.052;6.954;2023-02-18T00:43:03;101616.91;;;11.48;95.40
818;BME280;391;51.052;6.954;2023-02-18T00:45:07;101611.59;;;11.47;95.53
818;BME280;391;51.052;6.954;2023-02-18T00:47:13;101616.94;;;11.50;95.52
818;BME280;391;51.052;6.954;2023-02-18T00:49:18;101606.69;;;11.54;95.28
818;BME280;391;51.052;6.954;2023-02-18T00:51:22;101612.72;;;11.53;95.74
818;BME280;391;51.052;6.954;2023-02-18T00:53:26;101626.09;;;11.61;95.35
818;BME280;391;51.052;6.954;2023-02-18T00:55:37;101613.03;;;11.61;94.92
818;BME280;391;51.052;6.954;2023-02-18T00:57:41;101603.34;;;11.58;94.88
818;BME280;391;51.052;6.954;2023-02-18T00:59:44;101612.25;;;11.63;94.88
818;BME280;391;51.052;6.954;2023-02-18T01:01:48;101613.28;;;11.67;94.88
818;BME280;391;51.052;6.954;2023-02-18T01:03:52;101609.34;;;11.56;95.05
818;BME280;391;51.052;6.954;2023-02-18T01:05:56;101604.19;;;11.57;94.70
818;BME280;391;51.052;6.954;2023-02-18T01:08:00;101596.97;;;11.73;94.24
818;BME280;391;51.052;6.954;2023-02-18T01:10:04;101596.03;;;11.71;94.44
818;BME280;391;51.052;6.954;2023-02-18T01:12:09;101599.59;;;11.73;93.99
818;BME280;391;51.052;6.954;2023-02-18T01:14:13;101603.41;;;11.60;94.42
818;BME280;391;51.052;6.954;2023-02-18T01:16:16;101590.03;;;11.73;94.28
818;BME280;391;51.052;6.954;2023-02-18T01:18:21;101598.63;;;11.48;95.11
818;BME280;391;51.052;6.954;2023-02-18T01:20:24;101572.56;;;11.28;95.30
818;BME280;391;51.052;6.954;2023-02-18T01:22:28;101587.91;;;11.42;95.53
818;BME280;391;51.052;6.954;2023-02-18T01:24:31;101581.81;;;11.42;95.17
818;BME280;391;51.052;6.954;2023-02-18T01:26:35;101588.53;;;11.57;95.42
818;BME280;391;51.052;6.954;2023-02-18T01:28:40;101584.59;;;11.68;94.74
818;BME280;391;51.052;6.954;2023-02-18T01:30:43;101589.13;;;11.73;94.27
818;BME280;391;51.052;6.954;2023-02-18T01:32:47;101572.63;;;11.74;94.04
818;BME280;391;51.052;6.954;2023-02-18T01:34:50;101568.00;;;11.68;93.67
818;BME280;391;51.052;6.954;2023-02-18T01:36:54;101587.63;;;11.79;93.51
818;BME280;391;51.052;6.954;2023-02-18T01:38:59;101578.91;;;11.79;93.55
818;BME280;391;51.052;6.954;2023-02-18T01:41:03;101580.97;;;11.87;93.16
818;BME280;391;51.052;6.954;2023-02-18T01:43:08;101583.41;;;11.83;92.57
818;BME280;391;51.052;6.954;2023-02-18T01:45:54;101578.69;;;11.73;93.23
818;BME280;391;51.052;6.954;2023-02-18T01:47:59;101578.22;;;11.62;93.14
818;BME280;391;51.052;6.954;2023-02-18T01:50:04;101582.81;;;11.67;93.54
818;BME280;391;51.052;6.954;2023-02-18T01:52:10;101571.78;;;11.75;93.16
818;BME280;391;51.052;6.954;2023-02-18T01:54:18;101564.53;;;11.67;93.10
818;BME280;391;51.052;6.954;2023-02-18T01:56:27;101566.63;;;11.76;93.24
818;BME280;391;51.052;6.954;2023-02-18T01:58:31;101566.13;;;11.64;93.58
818;BME280;391;51.052;6.954;2023-02-18T02:00:35;101561.44;;;11.55;94.13
818;BME280;391;51.052;6.954;2023-02-18T02:02:43;101557.19;;;11.57;93.72
818;BME280;391;51.052;6.954;2023-02-18T02:04:48;101556.00;;;11.72;93.56
818;BME280;391;51.052;6.954;2023-02-18T02:06:52;101554.34;;;11.74;93.27
818;BME280;391;51.052;6.954;2023-02-18T02:08:59;101548.50;;;11.81;93.18
818;BME280;391;51.052;6.954;2023-02-18T02:11:20;101543.25;;;11.81;93.05
818;BME280;391;51.052;6.954;2023-02-18T02:13:30;101534.38;;;11.76;92.63
818;BME280;391;51.052;6.954;2023-02-18T02:15:42;101543.50;;;11.87;92.80
818;BME280;391;51.052;6.954;2023-02-18T02:17:59;101537.53;;;11.91;92.46
818;BME280;391;51.052;6.954;2023-02-18T02:25:29;101544.56;;;11.69;93.70
818;BME280;391;51.052;6.954;2023-02-18T02:27:54;101535.31;;;11.55;94.58
818;BME280;391;51.052;6.954;2023-02-18T02:30:41;101538.03;;;11.81;94.55
818;BME280;391;51.052;6.954;2023-02-18T02:33:27;101540.22;;;11.92;93.82
818;BME280;391;51.052;6.954;2023-02-18T02:35:41;101531.84;;;11.77;94.15
818;BME280;391;51.052;6.954;2023-02-18T02:37:51;101504.88;;;11.56;95.23
818;BME280;391;51.052;6.954;2023-02-18T02:40:19;101515.53;;;11.62;95.41
818;BME280;391;51.052;6.954;2023-02-18T02:42:38;101514.81;;;11.88;94.73
818;BME280;391;51.052;6.954;2023-02-18T02:44:46;101508.38;;;11.79;94.46
818;BME280;391;51.052;6.954;2023-02-18T02:46:58;101515.72;;;11.66;95.50
818;BME280;391;51.052;6.954;2023-02-18T02:49:10;101505.06;;;11.84;95.02
818;BME280;391;51.052;6.954;2023-02-18T02:51:19;101497.63;;;11.71;95.69
818;BME280;391;51.052;6.954;2023-02-18T02:53:29;101496.47;;;11.87;95.20
818;BME280;391;51.052;6.954;2023-02-18T02:55:33;101497.94;;;12.04;94.70
818;BME280;391;51.052;6.954;2023-02-18T02:57:43;101494.63;;;11.84;94.91
818;BME280;391;51.052;6.954;2023-02-18T02:59:57;101488.28;;;11.78;95.33
818;BME280;391;51.052;6.954;2023-02-18T03:02:10;101438.38;;;11.46;95.00
818;BME280;391;51.052;6.954;2023-02-18T03:04:35;101495.00;;;11.95;94.84
818;BME280;391;51.052;6.954;2023-02-18T03:07:07;101484.28;;;11.87;95.02
818;BME280;391;51.052;6.954;2023-02-18T03:09:18;101485.78;;;12.04;94.76
818;BME280;391;51.052;6.954;2023-02-18T03:11:27;101485.06;;;12.08;94.22
818;BME280;391;51.052;6.954;2023-02-18T03:13:40;101487.50;;;12.04;93.99
818;BME280;391;51.052;6.954;2023-02-18T03:15:54;101484.72;;;11.99;94.54
818;BME280;391;51.052;6.954;2023-02-18T03:18:04;101476.09;;;12.02;94.14
818;BME280;391;51.052;6.954;2023-02-18T03:20:17;101478.63;;;11.99;94.19
818;BME280;391;51.052;6.954;2023-02-18T03:22:27;101472.69;;;12.04;93.45
818;BME280;391;51.052;6.954;2023-02-18T03:24:37;101472.97;;;12.12;93.94
818;BME280;391;51.052;6.954;2023-02-18T03:26:44;101464.56;;;11.95;94.35
818;BME280;391;51.052;6.954;2023-02-18T03:28:50;101461.75;;;11.91;93.87
818;BME280;391;51.052;6.954;2023-02-18T03:30:58;101447.69;;;11.87;93.63
818;BME280;391;51.052;6.954;2023-02-18T03:33:05;101422.66;;;11.94;93.62
818;BME280;391;51.052;6.954;2023-02-18T03:35:12;101474.28;;;11.99;93.47
818;BME280;391;51.052;6.954;2023-02-18T03:37:17;101476.94;;;12.01;94.00
818;BME280;391;51.052;6.954;2023-02-18T03:39:27;101470.72;;;11.97;94.41
818;BME280;391;51.052;6.954;2023-02-18T03:41:31;101462.16;;;12.01;94.21
818;BME280;391;51.052;6.954;2023-02-18T03:43:35;101470.25;;;11.84;95.45
818;BME280;391;51.052;6.954;2023-02-18T03:45:39;101477.44;;;11.67;96.46
818;BME280;391;51.052;6.954;2023-02-18T03:47:42;101467.81;;;11.66;97.99
818;BME280;391;51.052;6.954;2023-02-18T03:49:49;101453.75;;;11.62;98.53
818;BME280;391;51.052;6.954;2023-02-18T03:51:53;101470.91;;;11.56;100.00
818;BME280;391;51.052;6.954;2023-02-18T03:53:56;101465.28;;;11.67;99.60
818;BME280;391;51.052;6.954;2023-02-18T03:56:02;101460.84;;;11.43;100.00
818;BME280;391;51.052;6.954;2023-02-18T03:58:05;101457.75;;;11.29;100.00
818;BME280;391;51.052;6.954;2023-02-18T04:00:10;101467.03;;;11.45;100.00
818;BME280;391;51.052;6.954;2023-02-18T04:02:17;101465.47;;;11.26;100.00
818;BME280;391;51.052;6.954;2023-02-18T04:04:20;101456.78;;;11.03;100.00
818;BME280;391;51.052;6.954;2023-02-18T04:06:24;101438.66;;;11.08;100.00
818;BME280;391;51.052;6.954;2023-02-18T04:08:27;101442.34;;;11.13;100.00
818;BME280;391;51.052;6.954;2023-02-18T04:10:31;101438.78;;;11.11;100.00
818;BME280;391;51.052;6.954;2023-02-18T04:12:36;101429.47;;;11.18;100.00
818;BME280;391;51.052;6.954;2023-02-18T04:14:40;101421.28;;;11.08;100.00
818;BME280;391;51.052;6.954;2023-02-18T04:16:48;101432.25;;;11.22;100.00
818;BME280;391;51.052;6.954;2023-02-18T04:18:51;101415.25;;;11.33;100.00
818;BME280;391;51.052;6.954;2023-02-18T04:20:55;101420.44;;;11.32;100.00
818;BME280;391;51.052;6.954;2023-02-18T04:22:58;101411.03;;;11.37;100.00
818;BME280;391;51.052;6.954;2023-02-18T04:25:02;101406.19;;;11.24;100.00
818;BME280;391;51.052;6.954;2023-02-18T04:27:05;101394.59;;;11.15;100.00
818;BME280;391;51.052;6.954;2023-02-18T04:29:10;101408.69;;;10.97;100.00
818;BME280;391;51.052;6.954;2023-02-18T04:31:14;101415.44;;;10.92;100.00
818;BME280;391;51.052;6.954;2023-02-18T04:33:18;101409.38;;;10.93;100.00
818;BME280;391;51.052;6.954;2023-02-18T04:35:21;101417.91;;;11.11;100.00
818;BME280;391;51.052;6.954;2023-02-18T04:37:25;101371.09;;;10.70;100.00
818;BME280;391;51.052;6.954;2023-02-18T04:39:28;101408.81;;;10.78;100.00
818;BME280;391;51.052;6.954;2023-02-18T04:41:32;101406.66;;;10.90;100.00
818;BME280;391;51.052;6.954;2023-02-18T04:43:35;101395.56;;;10.73;100.00
818;BME280;391;51.052;6.954;2023-02-18T04:45:40;101396.13;;;10.87;100.00
818;BME280;391;51.052;6.954;2023-02-18T04:47:43;101393.38;;;11.06;100.00
818;BME280;391;51.052;6.954;2023-02-18T04:49:47;101397.38;;;10.98;100.00
818;BME280;391;51.052;6.954;2023-02-18T04:51:50;101401.00;;;11.01;100.00
818;BME280;391;51.052;6.954;2023-02-18T04:53:54;101401.50;;;10.91;100.00
818;BME280;391;51.052;6.954;2023-02-18T04:55:57;101391.31;;;10.97;100.00
818;BME280;391;51.052;6.954;2023-02-18T04:58:01;101389.47;;;11.19;100.00
818;BME280;391;51.052;6.954;2023-02-18T05:00:06;101388.81;;;11.24;100.00
818;BME280;391;51.052;6.954;2023-02-18T05:02:11;101388.22;;;11.31;100.00
818;BME280;391;51.052;6.954;2023-02-18T05:04:15;101278.59;;;10.60;100.00
818;BME280;391;51.052;6.954;2023-02-18T05:06:19;101380.13;;;11.01;100.00
818;BME280;391;51.052;6.954;2023-02-18T05:08:22;101386.16;;;10.77;100.00
818;BME280;391;51.052;6.954;2023-02-18T05:10:26;101367.56;;;10.68;100.00
818;BME280;391;51.052;6.954;2023-02-18T05:12:29;101386.16;;;10.77;100.00
818;BME280;391;51.052;6.954;2023-02-18T05:14:33;101389.53;;;10.96;100.00
818;BME280;391;51.052;6.954;2023-02-18T05:16:36;101375.09;;;11.06;100.00
818;BME280;391;51.052;6.954;2023-02-18T05:18:41;101388.75;;;10.99;100.00
818;BME280;391;51.052;6.954;2023-02-18T05:20:45;101383.19;;;10.90;100.00
818;BME280;391;51.052;6.954;2023-02-18T05:22:48;101372.88;;;10.93;100.00
818;BME280;391;51.052;6.954;2023-02-18T05:24:51;101371.28;;;10.74;100.00
818;BME280;391;51.052;6.954;2023-02-18T05:26:55;101255.56;;;10.04;100.00
818;BME280;391;51.052;6.954;2023-02-18T05:28:58;101383.44;;;10.74;100.00
818;BME280;391;51.052;6.954;2023-02-18T05:31:02;101370.03;;;10.65;100.00
818;BME280;391;51.052;6.954;2023-02-18T05:33:05;101365.06;;;10.71;100.00
818;BME280;391;51.052;6.954;2023-02-18T05:35:10;101360.75;;;10.71;100.00
818;BME280;391;51.052;6.954;2023-02-18T05:37:16;101364.50;;;10.79;100.00
818;BME280;391;51.052;6.954;2023-02-18T05:39:20;101362.09;;;10.61;100.00
818;BME280;391;51.052;6.954;2023-02-18T05:41:23;101357.72;;;10.60;100.00
818;BME280;391;51.052;6.954;2023-02-18T05:43:27;101353.06;;;10.76;100.00
818;BME280;391;51.052;6.954;2023-02-18T05:45:31;101348.16;;;10.83;100.00
818;BME280;391;51.052;6.954;2023-02-18T05:47:35;101359.03;;;10.72;100.00
818;BME280;391;51.052;6.954;2023-02-18T05:49:39;101332.63;;;10.64;100.00
818;BME280;391;51.052;6.954;2023-02-18T05:51:47;101342.16;;;10.86;100.00
818;BME280;391;51.052;6.954;2023-02-18T05:53:51;101341.03;;;10.79;100.00
818;BME280;391;51.052;6.954;2023-02-18T05:55:54;101334.44;;;10.65;100.00
818;BME280;391;51.052;6.954;2023-02-18T05:57:57;101329.97;;;10.62;100.00
818;BME280;391;51.052;6.954;2023-02-18T06:00:02;101336.25;;;10.68;100.00
818;BME280;391;51.052;6.954;2023-02-18T06:02:06;101286.16;;;10.30;100.00
818;BME280;391;51.052;6.954;2023-02-18T06:04:10;101324.13;;;10.68;100.00
818;BME280;391;51.052;6.954;2023-02-18T06:06:13;101321.03;;;10.56;100.00
818;BME280;391;51.052;6.954;2023-02-18T06:08:18;101301.59;;;10.26;100.00
818;BME280;391;51.052;6.954;2023-02-18T06:10:22;101310.66;;;10.35;100.00
818;BME280;391;51.052;6.954;2023-02-18T06:12:25;101311.09;;;10.24;100.00
818;BME280;391;51.052;6.954;2023-02-18T06:14:29;101299.13;;;10.29;100.00
818;BME280;391;51.052;6.954;2023-02-18T06:16:33;101314.09;;;10.34;100.00
818;BME280;391;51.052;6.954;2023-02-18T06:18:36;101317.56;;;10.33;100.00
818;BME280;391;51.052;6.954;2023-02-18T06:20:40;101319.50;;;10.39;100.00
818;BME280;391;51.052;6.954;2023-02-18T06:22:43;101307.88;;;10.31;100.00
818;BME280;391;51.052;6.954;2023-02-18T06:24:48;101322.41;;;10.46;100.00
818;BME280;391;51.052;6.954;2023-02-18T06:26:52;101317.72;;;10.38;100.00
818;BME280;391;51.052;6.954;2023-02-18T06:28:55;101306.47;;;10.39;100.00
818;BME280;391;51.052;6.954;2023-02-18T06:30:59;101310.56;;;10.32;100.00
818;BME280;391;51.052;6.954;2023-02-18T06:33:02;101317.00;;;10.42;100.00
818;BME280;391;51.052;6.954;2023-02-18T06:35:06;101324.28;;;10.50;100.00
818;BME280;391;51.052;6.954;2023-02-18T06:37:10;101295.81;;;10.33;100.00
818;BME280;391;51.052;6.954;2023-02-18T06:39:13;101312.78;;;10.68;100.00
818;BME280;391;51.052;6.954;2023-02-18T06:41:18;101309.09;;;10.62;100.00
818;BME280;391;51.052;6.954;2023-02-18T06:43:21;101311.97;;;10.69;100.00
818;BME280;391;51.052;6.954;2023-02-18T06:45:25;101320.50;;;10.65;100.00
818;BME280;391;51.052;6.954;2023-02-18T06:47:29;101314.94;;;10.55;100.00
818;BME280;391;51.052;6.954;2023-02-18T06:49:32;101315.41;;;10.68;100.00
818;BME280;391;51.052;6.954;2023-02-18T06:51:37;101300.47;;;10.63;100.00
818;BME280;391;51.052;6.954;2023-02-18T06:53:41;101187.16;;;10.09;100.00
818;BME280;391;51.052;6.954;2023-02-18T06:55:46;101317.06;;;10.89;100.00
818;BME280;391;51.052;6.954;2023-02-18T06:57:51;101313.69;;;10.92;100.00
818;BME280;391;51.052;6.954;2023-02-18T06:59:54;101319.34;;;10.80;100.00
818;BME280;391;51.052;6.954;2023-02-18T07:01:58;101316.31;;;10.70;100.00
818;BME280;391;51.052;6.954;2023-02-18T07:04:01;101339.09;;;10.74;100.00
818;BME280;391;51.052;6.954;2023-02-18T07:06:06;101312.44;;;10.82;100.00
818;BME280;391;51.052;6.954;2023-02-18T07:08:10;101309.69;;;11.01;100.00
818;BME280;391;51.052;6.954;2023-02-18T07:10:13;101330.06;;;11.11;100.00
818;BME280;391;51.052;6.954;2023-02-18T07:12:17;101305.91;;;10.93;100.00
818;BME280;391;51.052;6.954;2023-02-18T07:14:21;101282.38;;;10.68;100.00
818;BME280;391;51.052;6.954;2023-02-18T07:16:25;101317.75;;;10.84;100.00
818;BME280;391;51.052;6.954;2023-02-18T07:18:29;101301.09;;;10.80;100.00
818;BME280;391;51.052;6.954;2023-02-18T07:20:33;101332.94;;;10.95;100.00
818;BME280;391;51.052;6.954;2023-02-18T07:22:37;101339.06;;;10.96;100.00
818;BME280;391;51.052;6.954;2023-02-18T07:24:40;101333.16;;;10.78;99.94
818;BME280;391;51.052;6.954;2023-02-18T07:26:44;101346.31;;;10.81;99.80
818;BME280;391;51.052;6.954;2023-02-18T07:28:48;101344.50;;;10.78;99.77
818;BME280;391;51.052;6.954;2023-02-18T07:30:53;101333.63;;;10.90;99.28
818;BME280;391;51.052;6.954;2023-02-18T07:32:56;101342.59;;;10.98;99.29
818;BME280;391;51.052;6.954;2023-02-18T07:35:00;101336.66;;;11.02;99.26
818;BME280;391;51.052;6.954;2023-02-18T07:37:03;101336.53;;;10.97;98.40
818;BME280;391;51.052;6.954;2023-02-18T07:39:10;101338.22;;;10.97;97.85
818;BME280;391;51.052;6.954;2023-02-18T07:41:16;101339.16;;;10.99;97.90
818;BME280;391;51.052;6.954;2023-02-18T07:43:21;101335.13;;;11.07;96.78
818;BME280;391;51.052;6.954;2023-02-18T07:45:25;101307.25;;;10.82;96.73
818;BME280;391;51.052;6.954;2023-02-18T07:47:30;101334.84;;;10.99;97.00
818;BME280;391;51.052;6.954;2023-02-18T07:49:34;101337.78;;;11.08;96.30
818;BME280;391;51.052;6.954;2023-02-18T07:51:37;101338.28;;;10.98;96.28
818;BME280;391;51.052;6.954;2023-02-18T07:53:41;101343.81;;;11.07;96.42
818;BME280;391;51.052;6.954;2023-02-18T07:55:44;101342.59;;;10.98;96.50
818;BME280;391;51.052;6.954;2023-02-18T07:57:51;101349.72;;;11.26;95.68
818;BME280;391;51.052;6.954;2023-02-18T08:00:02;101350.94;;;11.11;95.18
818;BME280;391;51.052;6.954;2023-02-18T08:02:17;101360.97;;;11.01;95.68
818;BME280;391;51.052;6.954;2023-02-18T08:04:22;101365.16;;;10.96;95.63
818;BME280;391;51.052;6.954;2023-02-18T08:06:33;101377.25;;;10.94;95.09
818;BME280;391;51.052;6.954;2023-02-18T08:08:37;101382.38;;;10.69;94.54
818;BME280;391;51.052;6.954;2023-02-18T08:10:41;101353.06;;;10.53;94.44
818;BME280;391;51.052;6.954;2023-02-18T08:12:45;101388.56;;;10.72;94.99
818;BME280;391;51.052;6.954;2023-02-18T08:14:48;101389.44;;;10.71;95.14
818;BME280;391;51.052;6.954;2023-02-18T08:16:52;101387.47;;;10.66;94.76
818;BME280;391;51.052;6.954;2023-02-18T08:18:56;101384.31;;;10.52;94.98
818;BME280;391;51.052;6.954;2023-02-18T08:21:01;101393.44;;;10.63;94.53
818;BME280;391;51.052;6.954;2023-02-18T08:23:05;101395.94;;;10.60;94.48
818;BME280;391;51.052;6.954;2023-02-18T08:25:08;101405.09;;;10.50;93.11
818;BME280;391;51.052;6.954;2023-02-18T08:27:30;101409.13;;;10.42;93.20
818;BME280;391;51.052;6.954;2023-02-18T08:29:33;101396.91;;;10.41;92.88
818;BME280;391;51.052;6.954;2023-02-18T08:31:37;101410.72;;;10.39;92.64
818;BME280;391;51.052;6.954;2023-02-18T08:33:40;101415.63;;;10.52;92.85
818;BME280;391;51.052;6.954;2023-02-18T08:35:44;101403.41;;;10.51;91.93
818;BME280;391;51.052;6.954;2023-02-18T08:37:50;101413.13;;;10.34;91.25
818;BME280;391;51.052;6.954;2023-02-18T08:39:56;101415.06;;;10.38;91.02
818;BME280;391;51.052;6.954;2023-02-18T08:41:59;101429.41;;;10.49;91.00
818;BME280;391;51.052;6.954;2023-02-18T08:44:03;101410.31;;;10.50;90.72
818;BME280;391;51.052;6.954;2023-02-18T08:46:07;101395.22;;;10.42;90.00
818;BME280;391;51.052;6.954;2023-02-18T08:48:17;101400.22;;;10.37;90.49
818;BME280;391;51.052;6.954;2023-02-18T08:50:21;101408.16;;;10.40;91.41
818;BME280;391;51.052;6.954;2023-02-18T08:52:27;101406.66;;;10.45;91.12
818;BME280;391;51.052;6.954;2023-02-18T08:54:32;101411.91;;;10.47;90.77
818;BME280;391;51.052;6.954;2023-02-18T08:56:35;101407.47;;;10.44;91.46
818;BME280;391;51.052;6.954;2023-02-18T08:58:39;101406.22;;;10.35;91.84
818;BME280;391;51.052;6.954;2023-02-18T09:00:44;101383.44;;;10.31;91.71
818;BME280;391;51.052;6.954;2023-02-18T09:02:48;101401.31;;;10.42;91.53
818;BME280;391;51.052;6.954;2023-02-18T09:04:51;101397.88;;;10.43;91.61
818;BME280;391;51.052;6.954;2023-02-18T09:06:55;101383.41;;;10.29;91.90
818;BME280;391;51.052;6.954;2023-02-18T09:08:59;101416.91;;;10.63;91.60
818;BME280;391;51.052;6.954;2023-02-18T09:11:04;101405.19;;;10.52;90.86
818;BME280;391;51.052;6.954;2023-02-18T09:13:08;101390.78;;;10.39;91.03
818;BME280;391;51.052;6.954;2023-02-18T09:15:11;101341.53;;;10.04;91.36
818;BME280;391;51.052;6.954;2023-02-18T09:17:15;101355.97;;;10.17;91.42
818;BME280;391;51.052;6.954;2023-02-18T09:19:18;101393.19;;;10.35;91.18
818;BME280;391;51.052;6.954;2023-02-18T09:21:22;101385.56;;;10.39;91.26
818;BME280;391;51.052;6.954;2023-02-18T09:23:27;101391.59;;;10.38;90.73
818;BME280;391;51.052;6.954;2023-02-18T09:25:31;101387.28;;;10.61;90.63
818;BME280;391;51.052;6.954;2023-02-18T09:27:36;101380.47;;;10.65;89.22
818;BME280;391;51.052;6.954;2023-02-18T09:29:40;101377.75;;;10.61;89.97
818;BME280;391;51.052;6.954;2023-02-18T09:31:44;101389.59;;;10.53;89.02
818;BME280;391;51.052;6.954;2023-02-18T09:33:49;101373.81;;;10.73;90.09
818;BME280;391;51.052;6.954;2023-02-18T09:35:53;101372.75;;;10.68;89.12
818;BME280;391;51.052;6.954;2023-02-18T09:37:56;101392.19;;;10.53;89.09
818;BME280;391;51.052;6.954;2023-02-18T09:40:00;101374.59;;;10.70;89.33
818;BME280;391;51.052;6.954;2023-02-18T09:42:06;101346.91;;;10.74;88.30
818;BME280;391;51.052;6.954;2023-02-18T09:44:18;101380.31;;;11.06;88.00
818;BME280;391;51.052;6.954;2023-02-18T09:46:26;101366.34;;;11.04;87.20
818;BME280;391;51.052;6.954;2023-02-18T09:48:34;101363.53;;;10.99;88.07
818;BME280;391;51.052;6.954;2023-02-18T09:50:38;101374.81;;;10.98;87.52
818;BME280;391;51.052;6.954;2023-02-18T09:52:41;101368.50;;;11.15;87.40
818;BME280;391;51.052;6.954;2023-02-18T09:54:45;101362.09;;;11.07;86.55
818;BME280;391;51.052;6.954;2023-02-18T09:56:51;101366.19;;;11.01;86.97
818;BME280;391;51.052;6.954;2023-02-18T09:58:56;101366.16;;;10.99;88.47
818;BME280;391;51.052;6.954;2023-02-18T10:01:05;101349.28;;;10.90;86.97
818;BME280;391;51.052;6.954;2023-02-18T10:03:16;101361.66;;;10.95;86.80
818;BME280;391;51.052;6.954;2023-02-18T10:05:20;101361.97;;;10.81;87.72
818;BME280;391;51.052;6.954;2023-02-18T10:07:27;101319.19;;;10.53;87.52
818;BME280;391;51.052;6.954;2023-02-18T10:09:34;101340.13;;;10.55;88.05
818;BME280;391;51.052;6.954;2023-02-18T10:11:40;101238.84;;;9.99;87.30
818;BME280;391;51.052;6.954;2023-02-18T10:13:44;101325.03;;;10.46;88.13
818;BME280;391;51.052;6.954;2023-02-18T10:15:48;101335.84;;;10.57;88.42
818;BME280;391;51.052;6.954;2023-02-18T10:17:54;101348.97;;;10.82;88.12
818;BME280;391;51.052;6.954;2023-02-18T10:19:59;101327.47;;;10.88;87.46
818;BME280;391;51.052;6.954;2023-02-18T10:22:10;101324.38;;;10.76;87.75
818;BME280;391;51.052;6.954;2023-02-18T10:24:26;101343.25;;;10.69;88.67
818;BME280;391;51.052;6.954;2023-02-18T10:26:33;101347.03;;;10.77;88.53
818;BME280;391;51.052;6.954;2023-02-18T10:28:37;101330.59;;;10.79;88.24
818;BME280;391;51.052;6.954;2023-02-18T10:30:42;101331.72;;;10.86;87.88
818;BME280;391;51.052;6.954;2023-02-18T10:32:51;101315.84;;;10.80;87.81
818;BME280;391;51.052;6.954;2023-02-18T10:35:04;101346.44;;;10.84;87.93
818;BME280;391;51.052;6.954;2023-02-18T10:37:30;101346.03;;;10.73;88.08
818;BME280;391;51.052;6.954;2023-02-18T10:39:47;101253.41;;;10.37;87.61
818;BME280;391;51.052;6.954;2023-02-18T10:42:03;101348.72;;;10.98;87.33
818;BME280;391;51.052;6.954;2023-02-18T10:44:14;101350.09;;;10.89;88.12
818;BME280;391;51.052;6.954;2023-02-18T10:46:25;101332.75;;;10.67;88.59
818;BME280;391;51.052;6.954;2023-02-18T10:48:50;101352.47;;;10.83;89.53
818;BME280;391;51.052;6.954;2023-02-18T10:51:05;101344.31;;;10.74;89.74
818;BME280;391;51.052;6.954;2023-02-18T10:53:18;101351.91;;;10.91;90.02
818;BME280;391;51.052;6.954;2023-02-18T10:55:35;101349.88;;;10.83;90.82
818;BME280;391;51.052;6.954;2023-02-18T10:57:46;101362.31;;;10.90;91.27
818;BME280;391;51.052;6.954;2023-02-18T10:59:58;101362.34;;;10.91;91.71
818;BME280;391;51.052;6.954;2023-02-18T11:02:12;101378.16;;;10.94;92.00
818;BME280;391;51.052;6.954;2023-02-18T11:04:18;101371.25;;;10.96;92.57
818;BME280;391;51.052;6.954;2023-02-18T11:06:29;101367.13;;;10.79;92.59
818;BME280;391;51.052;6.954;2023-02-18T11:08:38;101385.50;;;10.60;93.56
818;BME280;391;51.052;6.954;2023-02-18T11:10:45;101366.31;;;10.58;94.04
818;BME280;391;51.052;6.954;2023-02-18T11:12:55;101375.81;;;10.56;93.90
818;BME280;391;51.052;6.954;2023-02-18T11:15:15;101325.06;;;10.26;94.93
818;BME280;391;51.052;6.954;2023-02-18T11:17:21;101363.69;;;10.36;94.69
818;BME280;391;51.052;6.954;2023-02-18T11:19:33;101357.78;;;10.40;95.01
818;BME280;391;51.052;6.954;2023-02-18T11:21:38;101379.34;;;10.36;96.09
818;BME280;391;51.052;6.954;2023-02-18T11:23:46;101372.69;;;10.44;95.98
818;BME280;391;51.052;6.954;2023-02-18T11:26:00;101377.75;;;10.61;95.76
818;BME280;391;51.052;6.954;2023-02-18T11:28:06;101347.22;;;10.37;97.13
818;BME280;391;51.052;6.954;2023-02-18T11:30:30;101360.16;;;10.34;98.37
818;BME280;391;51.052;6.954;2023-02-18T11:32:35;101344.69;;;9.97;99.81
818;BME280;391;51.052;6.954;2023-02-18T11:34:41;101365.84;;;10.25;100.00
818;BME280;391;51.052;6.954;2023-02-18T11:36:48;101391.75;;;10.21;100.00
818;BME280;391;51.052;6.954;2023-02-18T11:38:55;101344.38;;;10.10;100.00
818;BME280;391;51.052;6.954;2023-02-18T11:41:04;101366.69;;;10.03;100.00